METAR podaci zračne luke     LDPL Pula Airport
Temperatura
8°C Temperatura
7°C Točka rosišta
93% Vlaga



Vjetar
2 KM/H
1 MPH
0 M/S
1 KTS



Tišina
Sjever
Trenutna situacija

Shallow Magla Shallow Magla
Tlak zraka 1022.92 (hPa) - 30.21 (inHg)
Vidljivost 6.2 (milje) - 10 (km)
Zračna luka
Kôd zračne luke LDPL

Lokacija: Pula Airport
Udaljenost: 39 (km)

Metar:
LDPL 310600Z VRB01KT 9999 MIFG NSC 08/07 Q1023 NOSIG

Vrijeme: 31-10-2020 07:00 CET